MUHA/HAV METAR and TAF weather

Enter ICAO airport designator
Station Type Date Time Source
MUHA METAR 2020/11/27 01:55 UTC NOAA

MUHA 270155Z 08004KT 9000 FEW030 21/19 Q1018


Station Type Date Time Source
MUHA Decoded METAR 2020/11/27 01:55 UTC NOAA

Aeropuerto Jose Marti, Rancho-Boyeros, Habana, Cuba (MUHA) 22-59N 082-24W 75M
Nov 26, 2020 - 08:55 PM EST / 2020.11.27 0155 UTC
Wind: from the E (080 degrees) at 5 MPH (4 KT):0
Visibility: 5 mile(s):0
Sky conditions: mostly clear
Temperature: 69 F (21 C)
Dew Point: 66 F (19 C)
Relative Humidity: 88%
Pressure (altimeter): 30.06 in. Hg (1018 hPa)
ob: MUHA 270155Z 08004KT 9000 FEW030 21/19 Q1018
cycle: 2

Station Type Date Time Source
MUHA TAF 2020/11/26 18:06 UTC NOAA

TAF MUHA 261700Z 2618/2718 10010KT 9000 FEW030
BECMG 2701/2703 VRB03KT PROB30
TEMPO 2709/2712 5000 BR
BECMG 2713/2715 09010KT

Example: see airport list